KTBN

Waynesville-St Robert Regional Forney Field Airport

Fort Leonard Wood, Missouri, USA
METAR KTBN 200456Z AUTO 17004KT 10SM BKN130 OVC150 22/20 A2996 RMK AO2 SLP137 T02160202
Observed Flight Rules
Jun-20 @ 04:56 UTC (49 minutes ago) Visual Flight Rules
Wind Visibility Clouds
170° at 4 knots 10 miles
  • Broken at 13,000' AGL
  • Overcast at 15,000' AGL
Temperatures Readings
Current 22°C / 72°F
Dewpoint 20°C / 68°F
Humidity 88%
Altimeter 29.96" Hg
Pressure 1013.7 hPa
Elevation 353
METAR KTBN 200456Z AUTO 17004KT 10SM BKN130 OVC150 22/20 A2996 RMK AO2 SLP137 T02160202
Observed Flight Rules
Jun-20 @ 04:56 UTC
(49 minutes ago)
VFR
Wind Visibility
170° at 4 knots 10 miles
Clouds
  • Broken at 13,000' AGL
  • Overcast at 15,000' AGL
Temperature Dewpoint
22°C / 72°F 20°C / 68°F
Humidity Altimeter Pressure
88% 29.96" Hg 1013.7 hPa